Map

Track Data

SID SEASON NUMBER BASIN SUBBASIN NAME ISO_TIME NATURE LAT LON WMO_WIND WMO_PRES WMO_AGENCY TRACK_TYPE DIST2LAND LANDFALL IFLAG USA_AGENCY USA_ATCF_ID USA_LAT USA_LON USA_RECORD USA_STATUS USA_WIND USA_PRES USA_SSHS USA_R34_NE USA_R34_SE USA_R34_SW USA_R34_NW USA_R50_NE USA_R50_SE USA_R50_SW USA_R50_NW USA_R64_NE USA_R64_SE USA_R64_SW USA_R64_NW USA_POCI USA_ROCI USA_RMW USA_EYE TOKYO_LAT TOKYO_LON TOKYO_GRADE TOKYO_WIND TOKYO_PRES TOKYO_R50_DIR TOKYO_R50_LONG TOKYO_R50_SHORT TOKYO_R30_DIR TOKYO_R30_LONG TOKYO_R30_SHORT TOKYO_LAND CMA_LAT CMA_LON CMA_CAT CMA_WIND CMA_PRES HKO_LAT HKO_LON HKO_CAT HKO_WIND HKO_PRES NEWDELHI_LAT NEWDELHI_LON NEWDELHI_GRADE NEWDELHI_WIND NEWDELHI_PRES NEWDELHI_CI NEWDELHI_DP NEWDELHI_POCI REUNION_LAT REUNION_LON REUNION_TYPE REUNION_WIND REUNION_PRES REUNION_TNUM REUNION_CI REUNION_RMW REUNION_R34_NE REUNION_R34_SE REUNION_R34_SW REUNION_R34_NW REUNION_R50_NE REUNION_R50_SE REUNION_R50_SW REUNION_R50_NW REUNION_R64_NE REUNION_R64_SE REUNION_R64_SW REUNION_R64_NW BOM_LAT BOM_LON BOM_TYPE BOM_WIND BOM_PRES BOM_TNUM BOM_CI BOM_RMW BOM_R34_NE BOM_R34_SE BOM_R34_SW BOM_R34_NW BOM_R50_NE BOM_R50_SE BOM_R50_SW BOM_R50_NW BOM_R64_NE BOM_R64_SE BOM_R64_SW BOM_R64_NW BOM_ROCI BOM_POCI BOM_EYE BOM_POS_METHOD BOM_PRES_METHOD NADI_LAT NADI_LON NADI_CAT NADI_WIND NADI_PRES WELLINGTON_LAT WELLINGTON_LON WELLINGTON_WIND WELLINGTON_PRES DS824_LAT DS824_LON DS824_STAGE DS824_WIND DS824_PRES TD9636_LAT TD9636_LON TD9636_STAGE TD9636_WIND TD9636_PRES TD9635_LAT TD9635_LON TD9635_WIND TD9635_PRES TD9635_ROCI NEUMANN_LAT NEUMANN_LON NEUMANN_CLASS NEUMANN_WIND NEUMANN_PRES MLC_LAT MLC_LON MLC_CLASS MLC_WIND MLC_PRES USA_GUST BOM_GUST BOM_GUST_PER REUNION_GUST REUNION_GUST_PER USA_SEAHGT USA_SEARAD_NE USA_SEARAD_SE USA_SEARAD_SW USA_SEARAD_NW STORM_SPEED STORM_DIR
2021334N13140 2021 93 WP MM NYATOH 2021-11-29 18:00:00 NR 12.6000 140.300 PROVISIONAL 1577 1525 O_____________ tcvightals WP272021 12.6000 140.300 35 999 0 1005 230 45 12 280
2021334N13140 2021 93 WP MM NYATOH 2021-11-29 21:00:00 NR 12.7078 139.690 PROVISIONAL 1525 1461 P_____________ WP272021 12.7040 139.654 35 999 0 1005 255 45 12 280
2021334N13140 2021 93 WP MM NYATOH 2021-11-30 00:00:00 NR 12.8000 139.100 PROVISIONAL 1461 1409 O_____________ tcvitals WP272021 12.8000 139.100 35 1000 0 1006 280 45 11 279
2021334N13140 2021 93 WP MM NYATOH 2021-11-30 03:00:00 NR 12.8716 138.614 PROVISIONAL 1409 1366 P_____________ WP272021 12.8858 138.696 -5 1004 255 45 9 279
2021334N13140 2021 93 WP MM NYATOH 2021-11-30 06:00:00 NR 12.9310 138.214 PROVISIONAL 1366 1335 O_____________ tcvitals WP272021 12.9724 138.366 -5 1003 230 45 7 278
2021334N13140 2021 93 WP MM NYATOH 2021-11-30 09:00:00 NR 12.9757 137.884 PROVISIONAL 1335 1303 P_____________ WP272021 13.0666 138.005 -5 1004 230 45 6 280
2021334N13140 2021 93 WP MM NYATOH 2021-11-30 12:00:00 NR 13.0374 137.577 PROVISIONAL 1303 1273 O_____________ tcvitals WP272021 13.1749 137.655 -5 1006 230 45 6 287
2021334N13140 2021 93 WP MM NYATOH 2021-11-30 15:00:00 NR 13.1502 137.282 PROVISIONAL 1275 1245 P_____________ WP272021 13.2955 137.314 -5 1005 250 47 6 295
2021334N13140 2021 93 WP MM NYATOH 2021-11-30 18:00:00 NR 13.3028 136.996 PROVISIONAL 1245 1217 O_____________ tcvitals WP272021 13.4399 136.992 -5 1004 270 50 7 303
2021334N13140 2021 93 WP MM NYATOH 2021-11-30 21:00:00 NR 13.5224 136.697 PROVISIONAL 1217 1193 P_____________ WP272021 13.5948 136.684 -5 1005 270 50 8 311
2021334N13140 2021 93 WP MM NYATOH 2021-12-01 00:00:00 NR 13.8000 136.400 PROVISIONAL 1193 1167 O_____________ tcvitals WP272021 13.8000 136.400 60 987 0 126 105 100 110 1007 270 50 8 316
2021334N13140 2021 93 WP MM NYATOH 2021-12-01 03:00:00 NR 14.0850 136.127 PROVISIONAL 1167 1150 P_____________ WP272021 14.0670 136.128 60 985 0 120 117 72 92 1004 230 50 8 321
2021334N13140 2021 93 WP MM NYATOH 2021-12-01 06:00:00 NR 14.4000 135.900 PROVISIONAL 1152 1138 O_____________ tcvightals WP272021 14.4000 135.900 60 983 0 115 130 45 75 1002 190 50 8 330
2021334N13140 2021 93 WP MM NYATOH 2021-12-01 09:00:00 NR 14.7850 135.705 PROVISIONAL 1141 1133 P_____________ WP272021 14.7850 135.705 62 983 0 115 130 65 85 1004 207 40 9 340
2021334N13140 2021 93 WP MM NYATOH 2021-12-01 12:00:00 NR 15.2000 135.600 PROVISIONAL 1142 1142 O_____________ tcvightals WP272021 15.2000 135.600 64 984 1 115 130 85 95 1006 225 30 8 355
2021334N13140 2021 93 WP MM NYATOH 2021-12-01 15:00:00 NR 15.6225 135.635 PROVISIONAL 1155 1155 P_____________ WP272021 15.6225 135.635 67 981 1 130 135 92 127 1005 217 25 8 7
2021334N13140 2021 93 WP MM NYATOH 2021-12-01 18:00:00 NR 16.0000 135.700 PROVISIONAL 1179 1177 O_____________ tcvightals WP272021 16.0000 135.700 70 978 1 145 140 100 160 1004 210 20 6 2
2021334N13140 2021 93 WP MM NYATOH 2021-12-01 21:00:00 NR 16.2500 135.643 PROVISIONAL 1181 1177 P_____________ WP272021 16.2500 135.643 75 974 1 160 152 110 167 1004 210 20 5 349
2021334N13140 2021 93 WP MM NYATOH 2021-12-02 00:00:00 NR 16.5000 135.600 PROVISIONAL 1189 1189 O_____________ tcvightals WP272021 16.5000 135.600 80 970 1 175 165 120 175 1004 210 20 6 0
2021334N13140 2021 93 WP MM NYATOH 2021-12-02 03:00:00 NR 16.8698 135.625 PROVISIONAL 1207 1207 P_____________ WP272021 16.8698 135.625 84 967 2 175 165 123 175 1004 220 21 8 13
2021334N13140 2021 93 WP MM NYATOH 2021-12-02 06:00:00 NR 17.3000 135.800 PROVISIONAL 1246 1246 O_____________ tcvightals WP272021 17.3000 135.800 89 964 2 175 165 126 175 1005 230 22 10 33
2021334N13140 2021 93 WP MM NYATOH 2021-12-02 09:00:00 NR 17.7127 136.205 PROVISIONAL 1303 1303 P_____________ WP272021 17.7127 136.205 94 960 2 182 167 130 162 1005 230 21 12 44
2021334N13140 2021 93 WP MM NYATOH 2021-12-02 12:00:00 NR 18.2000 136.700 PROVISIONAL 1376 1376 O_____________ tcvightals WP272021 18.2000 136.700 99 956 3 190 170 135 150 1005 230 20 14 37
2021334N13140 2021 93 WP MM NYATOH 2021-12-02 15:00:00 NR 18.8122 137.078 PROVISIONAL 1445 1445 P_____________ WP272021 18.8122 137.078 111 944 3 182 180 145 138 1005 235 18 15 30
2021334N13140 2021 93 WP MM NYATOH 2021-12-02 18:00:00 NR 19.5000 137.500 PROVISIONAL 1454 1414 O_____________ tcvightals WP272021 19.5000 137.500 124 933 4 175 190 155 126 1005 240 17 16 33
2021334N13140 2021 93 WP MM NYATOH 2021-12-02 21:00:00 NR 20.1770 138.026 PROVISIONAL 1409 1379 P_____________ WP272021 20.1770 138.026 124 934 4 175 190 155 126 1006 230 19 18 39
2021334N13140 2021 93 WP MM NYATOH 2021-12-03 00:00:00 NR 20.9000 138.700 PROVISIONAL 1379 1348 O_____________ tcvightals WP272021 20.9000 138.700 124 936 4 175 190 155 126 1008 220 22 21 43
2021334N13140 2021 93 WP MM NYATOH 2021-12-03 03:00:00 NR 21.7074 139.540 PROVISIONAL 1348 1297 P_____________ WP272021 21.7074 139.540 121 937 4 170 185 152 133 1006 207 23 23 46
2021334N13140 2021 93 WP MM NYATOH 2021-12-03 06:00:00 NR 22.5000 140.500 PROVISIONAL 1300 1273 O_____________ tcvightals WP272021 22.5000 140.500 119 938 4 165 180 150 140 1005 195 25 22 52
2021334N13140 2021 93 WP MM NYATOH 2021-12-03 09:00:00 NR 23.0963 141.444 PROVISIONAL 1273 1249 P_____________ WP272021 23.0963 141.444 114 942 4 152 172 160 145 1005 195 25 23 55
2021334N13140 2021 93 WP MM NYATOH 2021-12-03 12:00:00 NR 23.8000 142.500 PROVISIONAL 1254 1184 O_____________ tcvightals WP272021 23.8000 142.500 109 946 3 140 165 170 150 1005 195 25 28 51
2021334N13140 2021 93 WP MM NYATOH 2021-12-03 15:00:00 NR 24.8919 143.834 PROVISIONAL 1177 1106 P_____________ WP272021 24.8919 143.834 91 962 2 115 120 115 112 1006 177 22 33 46
2021334N13140 2021 93 WP MM NYATOH 2021-12-03 18:00:00 NR 26.1000 145.100 PROVISIONAL 1100 1040 O_____________ tcvightals WP272021 26.1000 145.100 74 979 1 90 75 60 75 1007 160 20 30 40
2021334N13140 2021 93 WP MM NYATOH 2021-12-03 21:00:00 NR 27.1936 145.976 PROVISIONAL 1036 979 P_____________ WP272021 27.1936 145.976 59 990 0 72 65 55 62 1008 150 20 25 32
2021334N13140 2021 93 WP MM NYATOH 2021-12-04 00:00:00 NR 28.2000 146.600 PROVISIONAL 975 O_____________ tcvightals WP272021 28.2000 146.600 45 1002 0 55 55 50 50 1010 140 20 23 29

Digital Typhoon Data and Search

About IBTrACS Database

This database is a web-friendly format of International Best Track Archive for Climate Stewardship (IBTrACS), a global best track data archive curated by NOAA dating back to 1842.

Updated: 2022-01-26